createdAt,value
2022-12-15T00:00:29.973Z,0
2022-12-15T00:01:31.269Z,0
2022-12-15T00:02:31.632Z,0
2022-12-15T00:03:33.812Z,0
2022-12-15T00:04:32.295Z,0
2022-12-15T00:05:33.026Z,0
2022-12-15T00:06:34.525Z,0
2022-12-15T00:07:35.172Z,0
2022-12-15T00:08:34.502Z,0
2022-12-15T00:09:41.829Z,0
2022-12-15T00:10:36.046Z,0
2022-12-15T00:11:36.946Z,0
2022-12-15T00:12:37.855Z,0
2022-12-15T00:13:39.176Z,0
2022-12-15T00:14:39.427Z,0
2022-12-15T00:15:40.707Z,0
2022-12-15T00:16:40.745Z,0
2022-12-15T00:17:40.915Z,0
2022-12-15T00:18:42.251Z,0
2022-12-15T00:19:42.840Z,0
2022-12-15T00:20:43.327Z,0
2022-12-15T00:21:43.223Z,0
2022-12-15T00:22:44.147Z,0
2022-12-15T00:23:44.915Z,0
2022-12-15T00:24:44.255Z,0
2022-12-15T00:25:44.588Z,0
2022-12-15T00:26:45.214Z,0
2022-12-15T00:27:45.659Z,0
2022-12-15T00:28:46.845Z,0
2022-12-15T00:29:46.453Z,0
2022-12-15T00:30:49.927Z,0
2022-12-15T00:31:47.860Z,0
2022-12-15T00:32:48.004Z,0
2022-12-15T00:33:48.709Z,0
2022-12-15T00:34:49.006Z,0
2022-12-15T00:35:48.918Z,0
2022-12-15T00:36:55.446Z,0
2022-12-15T00:37:51.152Z,0
2022-12-15T00:38:50.772Z,0
2022-12-15T00:39:51.538Z,0
2022-12-15T00:40:52.732Z,0
2022-12-15T00:41:52.365Z,0
2022-12-15T00:42:55.023Z,0
2022-12-15T00:43:53.933Z,0
2022-12-15T00:44:54.821Z,0
2022-12-15T00:45:54.727Z,0
2022-12-15T00:46:55.828Z,0
2022-12-15T00:47:56.014Z,0
2022-12-15T00:48:57.268Z,0
2022-12-15T00:49:57.762Z,0
2022-12-15T00:50:58.998Z,0
2022-12-15T00:51:58.203Z,0
2022-12-15T00:52:58.824Z,0
2022-12-15T00:54:00.034Z,0
2022-12-15T00:55:00.655Z,0
2022-12-15T00:56:01.154Z,0
2022-12-15T00:57:01.165Z,0
2022-12-15T00:58:01.593Z,0
2022-12-15T00:59:02.505Z,0
2022-12-15T01:00:03.435Z,0
2022-12-15T01:01:03.085Z,0
2022-12-15T01:02:05.177Z,0
2022-12-15T01:03:06.419Z,0
2022-12-15T01:04:05.910Z,0
2022-12-15T01:05:06.136Z,0
2022-12-15T01:06:07.628Z,0
2022-12-15T01:07:07.836Z,0
2022-12-15T01:08:08.131Z,0
2022-12-15T01:09:08.048Z,0
2022-12-15T01:10:09.266Z,0
2022-12-15T01:11:09.473Z,0
2022-12-15T01:12:09.095Z,0
2022-12-15T01:13:09.718Z,0
2022-12-15T01:14:10.927Z,0
2022-12-15T01:15:11.411Z,0
2022-12-15T01:16:11.384Z,0
2022-12-15T01:17:12.415Z,0
2022-12-15T01:18:12.849Z,0
2022-12-15T01:19:14.401Z,0
2022-12-15T01:20:13.909Z,0
2022-12-15T01:21:15.101Z,0
2022-12-15T01:22:15.472Z,0
2022-12-15T01:23:16.679Z,0
2022-12-15T01:24:17.293Z,0
2022-12-15T01:25:17.779Z,0
2022-12-15T01:26:18.264Z,0
2022-12-15T01:27:18.601Z,0
2022-12-15T01:28:19.925Z,0
2022-12-15T01:29:20.423Z,0
2022-12-15T01:30:20.905Z,0
2022-12-15T01:31:21.404Z,0
2022-12-15T01:32:21.056Z,0
2022-12-15T01:33:21.717Z,0
2022-12-15T01:34:23.349Z,0
2022-12-15T01:35:23.838Z,0
2022-12-15T01:36:23.928Z,0
2022-12-15T01:37:25.127Z,0
2022-12-15T01:38:25.685Z,0
2022-12-15T01:39:25.873Z,0
2022-12-15T01:40:26.509Z,0
2022-12-15T01:41:27.692Z,0
2022-12-15T01:42:28.179Z,0
2022-12-15T01:43:28.830Z,0
2022-12-15T01:44:28.797Z,0
2022-12-15T01:45:29.991Z,0
2022-12-15T01:46:29.851Z,0
2022-12-15T01:47:30.833Z,0
2022-12-15T01:48:31.599Z,0
2022-12-15T01:49:32.082Z,0
2022-12-15T01:50:32.276Z,0
2022-12-15T01:51:32.465Z,0
2022-12-15T01:52:33.382Z,0
2022-12-15T01:53:34.746Z,0
2022-12-15T01:54:35.229Z,0
2022-12-15T01:55:35.411Z,0
2022-12-15T01:56:43.280Z,0
2022-12-15T01:57:36.473Z,0
2022-12-15T01:58:37.106Z,0
2022-12-15T01:59:37.740Z,0
2022-12-15T02:00:38.588Z,0
2022-12-15T02:01:39.627Z,0
2022-12-15T02:02:46.391Z,0
2022-12-15T02:03:42.077Z,0
2022-12-15T02:04:40.634Z,0
2022-12-15T02:05:40.265Z,0
2022-12-15T02:06:41.467Z,0
2022-12-15T02:07:42.675Z,0
2022-12-15T02:08:43.698Z,0
2022-12-15T02:09:44.608Z,0
2022-12-15T02:10:44.538Z,0
2022-12-15T02:11:45.034Z,0
2022-12-15T02:12:45.381Z,0
2022-12-15T02:13:46.584Z,0
2022-12-15T02:14:46.405Z,0
2022-12-15T02:15:47.890Z,0
2022-12-15T02:16:48.131Z,0
2022-12-15T02:17:48.394Z,0
2022-12-15T02:18:49.689Z,0
2022-12-15T02:19:49.685Z,0
2022-12-15T02:20:49.635Z,0
2022-12-15T02:21:51.120Z,0
2022-12-15T02:22:51.022Z,0
2022-12-15T02:23:51.938Z,0
2022-12-15T02:24:55.713Z,0
2022-12-15T02:25:56.478Z,0
2022-12-15T02:26:53.662Z,0
2022-12-15T02:27:54.147Z,0
2022-12-15T02:28:53.413Z,0
2022-12-15T02:29:54.604Z,0
2022-12-15T02:30:54.504Z,0
2022-12-15T02:31:56.128Z,0
2022-12-15T02:32:56.476Z,0
2022-12-15T02:33:57.432Z,0
2022-12-15T02:34:58.116Z,0
2022-12-15T02:35:58.627Z,0
2022-12-15T02:36:58.968Z,0
2022-12-15T02:38:01.069Z,0
2022-12-15T02:38:59.759Z,0
2022-12-15T02:40:00.946Z,0
2022-12-15T02:41:01.869Z,0
2022-12-15T02:42:02.506Z,0
2022-12-15T02:43:03.128Z,0
2022-12-15T02:44:03.320Z,0
2022-12-15T02:45:03.806Z,0
2022-12-15T02:46:04.030Z,0
2022-12-15T02:47:03.745Z,0
2022-12-15T02:48:04.964Z,0
2022-12-15T02:49:04.997Z,0
2022-12-15T02:50:06.321Z,0
2022-12-15T02:51:06.289Z,0
2022-12-15T02:52:06.324Z,0
2022-12-15T02:53:07.643Z,0
2022-12-15T02:54:08.852Z,0
2022-12-15T02:55:09.482Z,0
2022-12-15T02:56:10.970Z,0
2022-12-15T02:57:10.883Z,0
2022-12-15T02:58:11.201Z,0
2022-12-15T02:59:12.199Z,0
2022-12-15T03:00:12.386Z,0
2022-12-15T03:01:13.268Z,0
2022-12-15T03:02:13.788Z,0
2022-12-15T03:03:13.617Z,0
2022-12-15T03:04:13.699Z,0
2022-12-15T03:05:15.247Z,0
2022-12-15T03:06:15.752Z,0
2022-12-15T03:07:15.957Z,0
2022-12-15T03:08:16.147Z,0
2022-12-15T03:09:15.869Z,0
2022-12-15T03:10:16.782Z,0
2022-12-15T03:11:17.397Z,0
2022-12-15T03:12:18.602Z,0
2022-12-15T03:13:18.518Z,0
2022-12-15T03:14:19.159Z,0
2022-12-15T03:15:19.199Z,0
2022-12-15T03:16:20.215Z,0
2022-12-15T03:17:20.475Z,0
2022-12-15T03:18:21.680Z,0
2022-12-15T03:19:22.415Z,0
2022-12-15T03:20:22.740Z,0
2022-12-15T03:21:22.366Z,0
2022-12-15T03:22:23.865Z,0
2022-12-15T03:23:24.064Z,0
2022-12-15T03:24:24.721Z,0
2022-12-15T03:25:24.928Z,0
2022-12-15T03:26:25.548Z,0
2022-12-15T03:27:25.865Z,0
2022-12-15T03:28:27.066Z,0
2022-12-15T03:29:27.757Z,0
2022-12-15T03:30:27.982Z,0
2022-12-15T03:31:27.870Z,0
2022-12-15T03:32:28.714Z,0
2022-12-15T03:33:30.247Z,0
2022-12-15T03:34:30.595Z,0
2022-12-15T03:35:31.140Z,0
2022-12-15T03:36:31.053Z,0
2022-12-15T03:37:31.387Z,0
2022-12-15T03:38:32.312Z,0
2022-12-15T03:39:32.464Z,0
2022-12-15T03:40:33.375Z,0
2022-12-15T03:41:34.579Z,0
2022-12-15T03:42:34.767Z,0
2022-12-15T03:43:36.851Z,0
2022-12-15T03:44:35.815Z,0
2022-12-15T03:45:36.618Z,0
2022-12-15T03:46:37.395Z,0
2022-12-15T03:47:37.309Z,0
2022-12-15T03:48:37.224Z,0
2022-12-15T03:49:37.703Z,0
2022-12-15T03:50:38.681Z,0
2022-12-15T03:51:38.583Z,0
2022-12-15T03:52:38.894Z,0
2022-12-15T03:53:40.839Z,0
2022-12-15T03:54:41.054Z,0
2022-12-15T03:55:40.968Z,0
2022-12-15T03:56:42.185Z,0
2022-12-15T03:57:42.114Z,0
2022-12-15T03:58:42.595Z,0
2022-12-15T03:59:42.034Z,0
2022-12-15T04:00:42.948Z,0
2022-12-15T04:01:44.232Z,0
2022-12-15T04:02:44.123Z,0
2022-12-15T04:03:44.601Z,0
2022-12-15T04:04:45.253Z,0
2022-12-15T04:05:45.786Z,0
2022-12-15T04:06:45.986Z,0
2022-12-15T04:07:45.594Z,0
2022-12-15T04:08:46.794Z,0
2022-12-15T04:09:47.090Z,0
2022-12-15T04:10:47.568Z,0
2022-12-15T04:11:47.765Z,0
2022-12-15T04:12:47.954Z,0
2022-12-15T04:13:48.875Z,0
2022-12-15T04:14:49.480Z,0
2022-12-15T04:15:49.820Z,0
2022-12-15T04:16:50.297Z,0
2022-12-15T04:17:50.594Z,0
2022-12-15T04:18:51.078Z,0
2022-12-15T04:19:51.384Z,0
2022-12-15T04:20:57.998Z,0
2022-12-15T04:21:52.215Z,0
2022-12-15T04:22:53.125Z,0
2022-12-15T04:23:53.749Z,0
2022-12-15T04:24:53.932Z,0
2022-12-15T04:25:54.283Z,0
2022-12-15T04:26:56.198Z,0
2022-12-15T04:27:59.913Z,0
2022-12-15T04:28:56.531Z,0
2022-12-15T04:29:57.517Z,0
2022-12-15T04:30:57.989Z,0
2022-12-15T04:31:58.431Z,0
2022-12-15T04:33:01.568Z,0
2022-12-15T04:33:59.755Z,0
2022-12-15T04:35:00.970Z,0
2022-12-15T04:36:01.225Z,0
2022-12-15T04:37:01.531Z,0
2022-12-15T04:38:02.440Z,0
2022-12-15T04:39:02.364Z,0
2022-12-15T04:40:02.636Z,0
2022-12-15T04:41:03.530Z,0
2022-12-15T04:42:03.729Z,0
2022-12-15T04:43:04.211Z,0
2022-12-15T04:44:04.117Z,0
2022-12-15T04:45:05.023Z,0
2022-12-15T04:46:05.745Z,0
2022-12-15T04:47:06.795Z,0
2022-12-15T04:48:07.000Z,0
2022-12-15T04:49:07.916Z,0
2022-12-15T04:50:08.341Z,0
2022-12-15T04:51:08.969Z,0
2022-12-15T04:52:09.184Z,0
2022-12-15T04:53:10.373Z,0
2022-12-15T04:54:10.110Z,0
2022-12-15T04:55:11.321Z,0
2022-12-15T04:56:15.090Z,0
2022-12-15T04:57:12.116Z,0
2022-12-15T04:58:12.653Z,0
2022-12-15T04:59:12.842Z,0
2022-12-15T05:00:13.831Z,0
2022-12-15T05:01:15.065Z,0
2022-12-15T05:02:15.783Z,0
2022-12-15T05:03:23.832Z,0
2022-12-15T05:04:17.047Z,0
2022-12-15T05:05:17.839Z,0
2022-12-15T05:06:18.455Z,0
2022-12-15T05:07:18.674Z,0
2022-12-15T05:08:19.594Z,0
2022-12-15T05:09:19.532Z,0
2022-12-15T05:10:25.988Z,0
2022-12-15T05:11:19.903Z,0
2022-12-15T05:12:21.382Z,0
2022-12-15T05:13:21.583Z,0
2022-12-15T05:14:22.241Z,0
2022-12-15T05:15:22.586Z,0
2022-12-15T05:16:23.358Z,0
2022-12-15T05:17:24.625Z,0
2022-12-15T05:18:24.601Z,0
2022-12-15T05:19:25.531Z,0
2022-12-15T05:20:26.561Z,0
2022-12-15T05:21:27.835Z,0
2022-12-15T05:22:28.024Z,0
2022-12-15T05:23:28.124Z,0
2022-12-15T05:24:28.287Z,0
2022-12-15T05:25:29.480Z,0
2022-12-15T05:26:29.971Z,0
2022-12-15T05:27:29.881Z,0
2022-12-15T05:28:31.081Z,0
2022-12-15T05:29:30.408Z,0
2022-12-15T05:30:31.848Z,0
2022-12-15T05:31:32.210Z,0
2022-12-15T05:32:32.513Z,0
2022-12-15T05:33:34.372Z,0
2022-12-15T05:34:34.331Z,0
2022-12-15T05:35:35.247Z,0
2022-12-15T05:36:36.011Z,0
2022-12-15T05:37:36.313Z,0
2022-12-15T05:38:36.951Z,0
2022-12-15T05:39:37.142Z,0
2022-12-15T05:40:38.427Z,0
2022-12-15T05:41:38.612Z,0
2022-12-15T05:42:39.099Z,0
2022-12-15T05:43:41.487Z,0
2022-12-15T05:44:39.817Z,0
2022-12-15T05:45:40.452Z,0
2022-12-15T05:46:41.607Z,0
2022-12-15T05:47:41.281Z,0
2022-12-15T05:48:42.179Z,0
2022-12-15T05:49:43.084Z,0
2022-12-15T05:50:44.087Z,0
2022-12-15T05:51:44.762Z,0
2022-12-15T05:52:49.117Z,0
2022-12-15T05:53:45.403Z,0
2022-12-15T05:54:46.609Z,0
2022-12-15T05:55:46.547Z,0
2022-12-15T05:56:50.168Z,0
2022-12-15T05:57:48.111Z,0
2022-12-15T05:58:55.665Z,0
2022-12-15T05:59:49.573Z,0
2022-12-15T06:00:50.127Z,0
2022-12-15T06:01:50.370Z,0
2022-12-15T06:02:50.907Z,0
2022-12-15T06:03:51.158Z,0
2022-12-15T06:04:52.042Z,0
2022-12-15T06:06:02.159Z,0
2022-12-15T06:06:53.713Z,0
2022-12-15T06:07:53.927Z,0
2022-12-15T06:08:56.236Z,0
2022-12-15T06:09:55.715Z,0
2022-12-15T06:10:55.821Z,0
2022-12-15T06:11:56.041Z,0
2022-12-15T06:12:56.250Z,0
2022-12-15T06:13:56.433Z,0
2022-12-15T06:15:00.996Z,0
2022-12-15T06:15:57.593Z,0
2022-12-15T06:17:02.455Z,0
2022-12-15T06:18:00.520Z,0
2022-12-15T06:19:01.497Z,0
2022-12-15T06:20:01.403Z,0
2022-12-15T06:21:02.128Z,0
2022-12-15T06:22:03.185Z,0
2022-12-15T06:23:03.389Z,0
2022-12-15T06:24:03.728Z,0
2022-12-15T06:25:04.917Z,0
2022-12-15T06:26:05.113Z,0
2022-12-15T06:27:05.338Z,0
2022-12-15T06:28:12.542Z,0
2022-12-15T06:29:06.467Z,0
2022-12-15T06:30:06.986Z,0
2022-12-15T06:31:07.623Z,0
2022-12-15T06:32:08.246Z,0
2022-12-15T06:33:08.859Z,0
2022-12-15T06:34:13.752Z,0
2022-12-15T06:35:09.957Z,4
2022-12-15T06:36:10.454Z,4
2022-12-15T06:37:10.398Z,4
2022-12-15T06:38:10.901Z,0
2022-12-15T06:39:11.259Z,0
2022-12-15T06:40:12.447Z,4
2022-12-15T06:41:12.851Z,4
2022-12-15T06:42:13.066Z,0
2022-12-15T06:43:13.553Z,4
2022-12-15T06:44:14.041Z,4
2022-12-15T06:45:13.931Z,4
2022-12-15T06:46:15.182Z,4
2022-12-15T06:47:15.077Z,8
2022-12-15T06:48:16.604Z,4
2022-12-15T06:49:16.792Z,8
2022-12-15T06:50:17.279Z,8
2022-12-15T06:51:22.982Z,8
2022-12-15T06:52:18.511Z,8
2022-12-15T06:53:18.152Z,12
2022-12-15T06:54:18.766Z,8
2022-12-15T06:55:19.957Z,12
2022-12-15T06:56:21.302Z,12
2022-12-15T06:57:21.656Z,12
2022-12-15T06:58:21.283Z,12
2022-12-15T06:59:22.191Z,16
2022-12-15T07:00:23.405Z,16
2022-12-15T07:01:24.880Z,20
2022-12-15T07:02:34.663Z,20
2022-12-15T07:03:27.033Z,20
2022-12-15T07:04:26.576Z,24
2022-12-15T07:05:26.789Z,20
2022-12-15T07:06:27.384Z,20
2022-12-15T07:07:27.730Z,20
2022-12-15T07:08:41.773Z,24
2022-12-15T07:09:27.824Z,24
2022-12-15T07:10:28.741Z,24
2022-12-15T07:11:30.369Z,28
2022-12-15T07:12:30.568Z,28
2022-12-15T07:13:31.500Z,28
2022-12-15T07:14:31.633Z,28
2022-12-15T07:15:31.950Z,28
2022-12-15T07:16:33.731Z,28
2022-12-15T07:17:33.685Z,32
2022-12-15T07:18:34.887Z,32
2022-12-15T07:19:35.072Z,32
2022-12-15T07:20:40.081Z,36
2022-12-15T07:21:36.709Z,36
2022-12-15T07:22:37.703Z,36
2022-12-15T07:24:08.402Z,36
2022-12-15T07:24:38.725Z,36
2022-12-15T07:25:39.073Z,40
2022-12-15T07:26:40.023Z,40
2022-12-15T07:27:40.106Z,40
2022-12-15T07:28:41.015Z,40
2022-12-15T07:29:41.227Z,40
2022-12-15T07:30:49.714Z,44
2022-12-15T07:31:43.008Z,44
2022-12-15T07:32:43.396Z,44
2022-12-15T07:33:44.325Z,44
2022-12-15T07:34:44.824Z,48
2022-12-15T07:35:44.590Z,56
2022-12-15T07:36:50.127Z,56
2022-12-15T07:37:45.754Z,56
2022-12-15T07:38:45.704Z,56
2022-12-15T07:39:46.157Z,56
2022-12-15T07:40:47.053Z,56
2022-12-15T07:41:48.042Z,60
2022-12-15T07:42:48.672Z,60
2022-12-15T07:43:49.306Z,64
2022-12-15T07:44:49.862Z,64
2022-12-15T07:45:57.002Z,64
2022-12-15T07:46:50.316Z,64
2022-12-15T07:47:50.241Z,68
2022-12-15T07:48:56.471Z,72
2022-12-15T07:49:52.363Z,72
2022-12-15T07:50:59.826Z,80
2022-12-15T07:51:57.980Z,84
2022-12-15T07:52:59.346Z,84
2022-12-15T07:53:59.636Z,88
2022-12-15T07:55:00.830Z,88
2022-12-15T07:56:18.158Z,96
2022-12-15T07:57:02.645Z,96
2022-12-15T07:58:02.855Z,100
2022-12-15T07:59:03.492Z,108
2022-12-15T08:00:04.978Z,112
2022-12-15T08:01:05.486Z,124
2022-12-15T08:02:06.827Z,128
2022-12-15T08:03:06.409Z,128
2022-12-15T08:04:06.953Z,140
2022-12-15T08:05:06.668Z,140
2022-12-15T08:06:14.786Z,144
2022-12-15T08:07:07.227Z,144
2022-12-15T08:08:12.259Z,148
2022-12-15T08:09:09.341Z,148
2022-12-15T08:10:09.238Z,152
2022-12-15T08:11:09.878Z,160
2022-12-15T08:12:11.506Z,164
2022-12-15T08:13:18.043Z,176
2022-12-15T08:14:25.775Z,180
2022-12-15T08:15:18.999Z,188
2022-12-15T08:16:20.547Z,188
2022-12-15T08:17:20.373Z,196
2022-12-15T08:18:20.566Z,196
2022-12-15T08:19:21.230Z,196
2022-12-15T08:20:21.852Z,196
2022-12-15T08:21:23.140Z,200
2022-12-15T08:22:23.777Z,208
2022-12-15T08:23:24.400Z,212
2022-12-15T08:24:24.131Z,212
2022-12-15T08:25:24.329Z,208
2022-12-15T08:26:30.218Z,204
2022-12-15T08:27:25.320Z,204
2022-12-15T08:28:26.540Z,204
2022-12-15T08:30:01.128Z,204
2022-12-15T08:30:27.876Z,204
2022-12-15T08:31:28.443Z,204
2022-12-15T08:32:29.489Z,208
2022-12-15T08:33:29.519Z,212
2022-12-15T08:34:30.412Z,220
2022-12-15T08:36:05.943Z,228
2022-12-15T08:36:31.156Z,228
2022-12-15T08:37:31.382Z,236
2022-12-15T08:38:32.118Z,240
2022-12-15T08:39:32.008Z,236
2022-12-15T08:40:33.203Z,228
2022-12-15T08:41:33.390Z,232
2022-12-15T08:42:34.379Z,232
2022-12-15T08:43:40.002Z,240
2022-12-15T08:44:36.548Z,252
2022-12-15T08:45:36.353Z,264
2022-12-15T08:46:37.363Z,276
2022-12-15T08:47:37.319Z,280
2022-12-15T08:48:37.505Z,284
2022-12-15T08:49:37.701Z,288
2022-12-15T08:50:38.643Z,280
2022-12-15T08:51:39.326Z,272
2022-12-15T08:52:40.435Z,272
2022-12-15T08:53:43.494Z,276
2022-12-15T08:54:41.339Z,276
2022-12-15T08:55:42.043Z,280
2022-12-15T08:56:43.380Z,280
2022-12-15T08:57:43.320Z,288
2022-12-15T08:58:44.261Z,296
2022-12-15T08:59:44.182Z,304
2022-12-15T09:00:45.398Z,304
2022-12-15T09:01:47.412Z,304
2022-12-15T09:02:47.386Z,304
2022-12-15T09:03:48.418Z,308
2022-12-15T09:04:49.524Z,312
2022-12-15T09:05:49.215Z,320
2022-12-15T09:06:56.433Z,324
2022-12-15T09:07:55.186Z,332
2022-12-15T09:08:56.530Z,332
2022-12-15T09:09:51.772Z,336
2022-12-15T09:10:58.336Z,344
2022-12-15T09:11:53.254Z,336
2022-12-15T09:12:54.857Z,340
2022-12-15T09:13:55.080Z,348
2022-12-15T09:14:55.280Z,356
2022-12-15T09:16:20.348Z,364
2022-12-15T09:17:01.621Z,368
2022-12-15T09:17:57.942Z,368
2022-12-15T09:18:58.181Z,368
2022-12-15T09:19:58.686Z,368
2022-12-15T09:20:58.899Z,380
2022-12-15T09:21:58.508Z,392
2022-12-15T09:23:01.954Z,404
2022-12-15T09:23:59.942Z,412
2022-12-15T09:25:00.211Z,412
2022-12-15T09:26:00.915Z,404
2022-12-15T09:27:00.319Z,396
2022-12-15T09:28:01.542Z,396
2022-12-15T09:29:02.007Z,404
2022-12-15T09:30:02.566Z,416
2022-12-15T09:31:02.801Z,428
2022-12-15T09:32:02.592Z,436
2022-12-15T09:33:03.995Z,436
2022-12-15T09:34:04.185Z,436
2022-12-15T09:35:04.409Z,440
2022-12-15T09:36:05.048Z,456
2022-12-15T09:37:05.967Z,468
2022-12-15T09:38:06.196Z,472
2022-12-15T09:39:06.777Z,476
2022-12-15T09:40:06.994Z,480
2022-12-15T09:41:08.191Z,472
2022-12-15T09:42:08.091Z,480
2022-12-15T09:43:53.319Z,484
2022-12-15T09:44:10.644Z,484
2022-12-15T09:45:11.135Z,488
2022-12-15T09:46:11.310Z,472
2022-12-15T09:47:11.077Z,484
2022-12-15T09:48:12.559Z,508
2022-12-15T09:49:12.753Z,520
2022-12-15T09:50:12.965Z,540
2022-12-15T09:51:12.865Z,552
2022-12-15T09:52:21.231Z,564
2022-12-15T09:54:00.542Z,580
2022-12-15T09:54:18.598Z,580
2022-12-15T09:55:18.879Z,588
2022-12-15T09:56:20.284Z,596
2022-12-15T09:57:20.231Z,604
2022-12-15T09:58:22.744Z,612
2022-12-15T09:59:21.389Z,624
2022-12-15T10:00:21.977Z,636
2022-12-15T10:01:22.445Z,640
2022-12-15T10:02:23.039Z,648
2022-12-15T10:03:24.252Z,668
2022-12-15T10:04:24.820Z,712
2022-12-15T10:05:29.895Z,752
2022-12-15T10:08:28.616Z,784
2022-12-15T10:09:29.280Z,784
2022-12-15T10:10:29.681Z,792
2022-12-15T10:11:30.169Z,792
2022-12-15T10:12:30.806Z,816
2022-12-15T10:13:30.820Z,836
2022-12-15T10:14:31.967Z,856
2022-12-15T10:15:32.510Z,816
2022-12-15T10:16:33.286Z,800
2022-12-15T10:17:33.493Z,804
2022-12-15T10:18:34.409Z,792
2022-12-15T10:19:34.898Z,760
2022-12-15T10:20:35.553Z,736
2022-12-15T10:21:36.546Z,724
2022-12-15T10:22:37.763Z,712
2022-12-15T10:23:39.104Z,660
2022-12-15T10:27:41.761Z,680
2022-12-15T10:28:42.228Z,680
2022-12-15T10:29:42.398Z,696
2022-12-15T10:32:57.465Z,748
2022-12-15T10:33:56.205Z,744
2022-12-15T10:34:47.702Z,752
2022-12-15T10:35:48.145Z,780
2022-12-15T10:36:48.830Z,824
2022-12-15T10:37:50.059Z,852
2022-12-15T10:38:50.914Z,852
2022-12-15T10:39:50.422Z,840
2022-12-15T10:40:56.700Z,824
2022-12-15T10:41:55.412Z,808
2022-12-15T10:42:53.775Z,792
2022-12-15T10:46:55.934Z,768
2022-12-15T10:47:55.897Z,772
2022-12-15T10:49:00.256Z,772
2022-12-15T10:50:00.462Z,764
2022-12-15T10:51:01.303Z,748
2022-12-15T10:51:58.213Z,732
2022-12-15T10:53:01.305Z,724
2022-12-15T10:54:01.884Z,736
2022-12-15T10:54:59.918Z,748
2022-12-15T10:56:01.104Z,752
2022-12-15T10:57:01.515Z,764
2022-12-15T10:58:02.593Z,768
2022-12-15T10:59:02.902Z,752
2022-12-15T11:00:03.152Z,756
2022-12-15T11:01:03.193Z,820
2022-12-15T11:02:04.935Z,868
2022-12-15T11:03:07.069Z,908
2022-12-15T11:04:06.249Z,968
2022-12-15T11:05:06.279Z,952
2022-12-15T11:06:06.779Z,924
2022-12-15T11:07:06.700Z,956
2022-12-15T11:08:12.172Z,972
2022-12-15T11:09:08.250Z,960
2022-12-15T11:10:08.866Z,1028
2022-12-15T11:11:13.551Z,1112
2022-12-15T11:12:12.320Z,1128
2022-12-15T11:13:11.352Z,1048
2022-12-15T11:14:11.583Z,956
2022-12-15T11:15:12.823Z,896
2022-12-15T11:16:13.035Z,944
2022-12-15T11:17:13.675Z,916
2022-12-15T11:18:14.269Z,932
2022-12-15T11:19:13.923Z,988
2022-12-15T11:20:14.992Z,976
2022-12-15T11:21:14.734Z,948
2022-12-15T11:22:15.965Z,920
2022-12-15T11:23:15.895Z,920
2022-12-15T11:24:17.249Z,964
2022-12-15T11:25:17.225Z,980
2022-12-15T11:26:18.304Z,968
2022-12-15T11:27:18.997Z,1012
2022-12-15T11:28:19.778Z,1092
2022-12-15T11:29:20.010Z,1132
2022-12-15T11:30:20.992Z,1116
2022-12-15T11:31:20.996Z,1048
2022-12-15T11:32:21.047Z,1016
2022-12-15T11:33:22.241Z,1008
2022-12-15T11:34:22.177Z,988
2022-12-15T11:35:22.695Z,992
2022-12-15T11:36:22.904Z,964
2022-12-15T11:37:23.816Z,936
2022-12-15T11:38:25.089Z,904
2022-12-15T11:39:25.380Z,864
2022-12-15T11:40:26.227Z,832
2022-12-15T11:41:26.136Z,828
2022-12-15T11:42:27.059Z,812
2022-12-15T11:43:27.477Z,784
2022-12-15T11:44:27.297Z,760
2022-12-15T11:45:28.637Z,724
2022-12-15T11:46:28.566Z,692
2022-12-15T11:47:41.495Z,672
2022-12-15T11:48:29.614Z,660
2022-12-15T11:49:31.167Z,652
2022-12-15T11:50:30.960Z,656
2022-12-15T11:51:30.948Z,672
2022-12-15T11:52:31.439Z,664
2022-12-15T11:53:32.060Z,648
2022-12-15T11:54:32.439Z,624
2022-12-15T11:55:47.091Z,608
2022-12-15T11:56:33.598Z,592
2022-12-15T11:57:33.529Z,580
2022-12-15T11:58:36.047Z,580
2022-12-15T11:59:34.901Z,584
2022-12-15T12:00:34.808Z,596
2022-12-15T12:01:36.520Z,604
2022-12-15T12:02:36.963Z,596
2022-12-15T12:03:36.821Z,592
2022-12-15T12:04:37.439Z,584
2022-12-15T12:05:38.665Z,576
2022-12-15T12:06:38.890Z,560
2022-12-15T12:07:49.083Z,548
2022-12-15T12:08:42.210Z,548
2022-12-15T12:09:41.041Z,536
2022-12-15T12:10:41.197Z,528
2022-12-15T12:11:41.665Z,516
2022-12-15T12:12:42.230Z,504
2022-12-15T12:13:43.706Z,500
2022-12-15T12:14:44.155Z,480
2022-12-15T12:15:45.080Z,472
2022-12-15T12:16:45.605Z,476
2022-12-15T12:17:45.836Z,484
2022-12-15T12:18:46.717Z,488
2022-12-15T12:19:47.115Z,488
2022-12-15T12:20:46.827Z,496
2022-12-15T12:21:50.848Z,496
2022-12-15T12:22:47.897Z,488
2022-12-15T12:23:49.519Z,468
2022-12-15T12:24:56.301Z,464
2022-12-15T12:25:50.599Z,468
2022-12-15T12:26:55.727Z,480
2022-12-15T12:27:56.338Z,480
2022-12-15T12:28:55.919Z,472
2022-12-15T12:29:55.812Z,472
2022-12-15T12:30:55.995Z,476
2022-12-15T12:32:02.140Z,472
2022-12-15T12:32:56.355Z,472
2022-12-15T12:33:56.091Z,480
2022-12-15T12:35:30.120Z,488
2022-12-15T12:35:56.043Z,484
2022-12-15T12:37:00.244Z,476
2022-12-15T12:38:01.283Z,464
2022-12-15T12:41:01.706Z,428
2022-12-15T12:42:01.696Z,416
2022-12-15T12:43:02.325Z,408
2022-12-15T12:44:04.880Z,400
2022-12-15T12:45:04.886Z,408
2022-12-15T12:46:05.083Z,420
2022-12-15T12:47:06.305Z,420
2022-12-15T12:48:06.500Z,420
2022-12-15T12:49:07.438Z,416
2022-12-15T12:50:10.305Z,412
2022-12-15T12:51:08.830Z,408
2022-12-15T12:52:09.621Z,408
2022-12-15T12:53:10.408Z,404
2022-12-15T12:54:10.360Z,404
2022-12-15T12:55:20.073Z,408
2022-12-15T12:56:11.608Z,404
2022-12-15T12:57:11.837Z,408
2022-12-15T12:58:12.745Z,408
2022-12-15T12:59:13.419Z,412
2022-12-15T13:00:14.144Z,392
2022-12-15T13:01:15.030Z,380
2022-12-15T13:02:15.922Z,364
2022-12-15T13:03:15.777Z,368
2022-12-15T13:04:17.042Z,372
2022-12-15T13:05:16.944Z,368
2022-12-15T13:06:17.153Z,364
2022-12-15T13:07:23.993Z,352
2022-12-15T13:08:18.380Z,344
2022-12-15T13:09:19.599Z,332
2022-12-15T13:10:19.222Z,320
2022-12-15T13:11:20.560Z,308
2022-12-15T13:13:00.985Z,300
2022-12-15T13:13:21.550Z,292
2022-12-15T13:14:32.458Z,296
2022-12-15T13:15:21.702Z,300
2022-12-15T13:16:22.895Z,292
2022-12-15T13:20:26.169Z,292
2022-12-15T13:21:27.210Z,296
2022-12-15T13:22:27.115Z,300
2022-12-15T13:23:28.378Z,292
2022-12-15T13:24:28.114Z,292
2022-12-15T13:25:29.031Z,276
2022-12-15T13:26:29.635Z,260
2022-12-15T13:27:29.833Z,248
2022-12-15T13:28:30.307Z,240
2022-12-15T13:29:30.793Z,228
2022-12-15T13:30:31.080Z,228
2022-12-15T13:31:32.576Z,224
2022-12-15T13:32:33.113Z,224
2022-12-15T13:33:34.418Z,228
2022-12-15T13:34:33.969Z,236
2022-12-15T13:35:34.184Z,240
2022-12-15T13:36:34.728Z,236
2022-12-15T13:37:34.433Z,232
2022-12-15T13:38:35.347Z,224
2022-12-15T13:39:35.529Z,228
2022-12-15T13:40:35.601Z,224
2022-12-15T13:41:36.261Z,216
2022-12-15T13:43:04.305Z,208
2022-12-15T13:43:38.306Z,204
2022-12-15T13:44:38.093Z,188
2022-12-15T13:45:39.049Z,180
2022-12-15T13:46:38.557Z,168
2022-12-15T13:47:38.770Z,160
2022-12-15T13:48:39.247Z,156
2022-12-15T13:49:42.044Z,148
2022-12-15T13:50:39.951Z,148
2022-12-15T13:51:41.095Z,148
2022-12-15T13:54:44.005Z,156
2022-12-15T13:55:44.585Z,160
2022-12-15T13:56:45.098Z,156
2022-12-15T13:57:46.005Z,164
2022-12-15T13:58:46.153Z,160
2022-12-15T13:59:49.107Z,164
2022-12-15T14:00:47.698Z,160
2022-12-15T14:01:48.277Z,164
2022-12-15T14:02:48.884Z,168
2022-12-15T14:03:50.376Z,164
2022-12-15T14:04:50.569Z,160
2022-12-15T14:05:51.345Z,156
2022-12-15T14:06:56.148Z,148
2022-12-15T14:08:00.625Z,144
2022-12-15T14:08:56.470Z,148
2022-12-15T14:09:56.175Z,144
2022-12-15T14:10:56.736Z,140
2022-12-15T14:12:04.920Z,136
2022-12-15T14:12:56.215Z,128
2022-12-15T14:14:02.681Z,124
2022-12-15T14:15:00.274Z,120
2022-12-15T14:16:02.070Z,116
2022-12-15T14:17:01.053Z,112
2022-12-15T14:18:00.428Z,112
2022-12-15T14:19:01.763Z,112
2022-12-15T14:20:02.442Z,108
2022-12-15T14:21:02.055Z,104
2022-12-15T14:22:01.842Z,100
2022-12-15T14:23:02.038Z,100
2022-12-15T14:24:47.977Z,92
2022-12-15T14:25:06.326Z,88
2022-12-15T14:26:07.109Z,84
2022-12-15T14:27:08.373Z,80
2022-12-15T14:28:17.793Z,72
2022-12-15T14:29:10.151Z,68
2022-12-15T14:30:12.108Z,68
2022-12-15T14:31:10.217Z,64
2022-12-15T14:32:10.848Z,64
2022-12-15T14:33:11.352Z,64
2022-12-15T14:34:11.298Z,60
2022-12-15T14:35:11.936Z,60
2022-12-15T14:36:13.123Z,60
2022-12-15T14:37:13.434Z,60
2022-12-15T14:38:13.913Z,56
2022-12-15T14:39:14.112Z,56
2022-12-15T14:40:15.812Z,52
2022-12-15T14:41:15.139Z,56
2022-12-15T14:42:15.093Z,56